Terminal Aerodrome Forecast
Issued by NWS Omaha/Valley, NE

Home | Current Version | Previous Version | Text Only | Print | Product List | Glossary Off
Versions: 1 2 3 4 5 6 7 8 9 10 11 12 13 14 15 16 17 18 19 20 21 22 23 24 25 26 27 28 29 30 31 32 33 34 35 36

224
FTUS43 KOAX 242253 AAA
TAFOFK
TAF AMD
KOFK 242253Z 2423/2518 33018G28KT 5SM BLSN SCT120
     FM250100 33012KT P6SM SCT150
     FM250400 30009KT P6SM SCT200
     FM251400 29005KT P6SM SCT200=

USA.gov is the U.S. government's official web portal to all federal, state and local government web resources and services.